エドモントン の空港の天気 - METARとTAF

エドモントン国際空港 ( CYEG / YEG ) - カナダ アルバータ州Edmonton Capital Region
飛行場実況気象(Metar)
観測時間04/26 05:00 MDT (04/26 11:00 UTC)
風向・風速西 2m/s
視程10km以上
天気現象
なし
気温3℃
湿度65%
気圧1019.4hPa
METARCYEG 261100Z 28004KT 15SM SKC 03/M03 A3005 RMK SLP194
過去の天気等 Google飛行場航空写真 Wunderground天気予報

過去48時間のMETAR

飛行場予報(TAF)
発表時間: 4/26 02:38 MDT (4/26 08:38 UTC)
予報対象時間: 26日3時 MDT ~ 27日0時 MDT
風向・風速不定 2m/s
視程10km以上
なし
26日4時 MDT ~ 26日6時 MDT に徐々に
風向・風速西 5m/s
26日12時 MDT から
風向・風速北 4m/s
視程10km以上
なし
26日16時 MDT から
風向・風速東 4m/s
視程10km以上
なし
TAF CYEG 260838Z 2609/2706 VRB03KT P6SM SKC
BECMG 2610/2612 27010KT
FM261800 36008KT P6SM SKC
FM262200 10008KT P6SM SKC RMK NXT FCST BY 261200Z